Time;durP1;ratioP1;P1;durP2;ratioP2;P2;SDS_P1;SDS_P2;PMS_P1;PMS_P2;Temp;Humidity;BMP_temperature;BMP_pressure;BME280_temperature;BME280_humidity;BME280_pressure;Samples;Min_cycle;Max_cycle;Signal;HPM_P1;HPM_P2
2022/09/17 00:00:46;;;;;;;10.65;2.33;;;12.70;99.90;;;;;;5021851;28;20200;-65
2022/09/17 00:03:13;;;;;;;7.78;1.92;;;12.70;99.90;;;;;;4998600;28;20212;-66
2022/09/17 00:05:40;;;;;;;12.07;2.33;;;12.70;99.90;;;;;;4996586;28;20225;-66
2022/09/17 00:08:09;;;;;;;10.27;2.47;;;11.40;99.90;;;;;;5012398;28;20209;-66
2022/09/17 00:10:40;;;;;;;10.05;2.38;;;12.60;99.90;;;;;;4983588;28;20206;-66
2022/09/17 00:13:07;;;;;;;16.73;2.55;;;12.40;99.90;;;;;;5020826;28;20740;-65
2022/09/17 00:15:41;;;;;;;10.63;1.88;;;12.60;99.90;;;;;;5017164;28;20202;-66
2022/09/17 00:18:08;;;;;;;6.72;1.98;;;12.60;99.90;;;;;;4996652;28;20229;-66
2022/09/17 00:20:38;;;;;;;14.20;2.65;;;12.60;99.90;;;;;;5012707;28;20201;-65
2022/09/17 00:23:05;;;;;;;12.43;2.33;;;12.60;99.90;;;;;;5012183;28;20213;-65
2022/09/17 00:25:32;;;;;;;12.80;2.25;;;14.60;99.90;;;;;;5005957;28;20201;-66
2022/09/17 00:27:59;;;;;;;10.10;2.10;;;12.50;99.90;;;;;;5027744;28;20256;-65
2022/09/17 00:30:26;;;;;;;10.35;2.20;;;12.50;99.90;;;;;;5013567;28;20205;-66
2022/09/17 00:32:56;;;;;;;10.70;2.10;;;12.50;99.90;;;;;;5001397;28;21423;-65
2022/09/17 00:35:24;;;;;;;7.07;1.98;;;12.40;99.90;;;;;;4995474;28;20205;-65
2022/09/17 00:37:51;;;;;;;15.10;2.80;;;;;;;;;;5016750;28;20199;-65
2022/09/17 00:40:18;;;;;;;12.82;2.40;;;12.40;99.90;;;;;;5000558;28;20229;-64
2022/09/17 00:42:45;;;;;;;13.48;2.30;;;12.40;99.90;;;;;;5013077;28;20205;-65
2022/09/17 00:45:12;;;;;;;11.10;1.88;;;12.30;99.90;;;;;;5029421;28;20209;-66
2022/09/17 00:47:45;;;;;;;21.42;2.13;;;12.30;99.90;;;;;;5024290;28;20232;-65
2022/09/17 00:50:18;;;;;;;17.13;2.05;;;12.30;99.90;;;;;;5003346;28;20526;-65
2022/09/17 00:52:49;;;;;;;16.60;2.80;;;12.40;99.90;;;;;;5011384;28;23829;-65
2022/09/17 00:55:21;;;;;;;14.50;2.30;;;12.30;99.90;;;;;;5020654;28;20212;-66
2022/09/17 00:57:49;;;;;;;12.30;2.72;;;12.30;99.90;;;;;;5004445;28;20209;-65
2022/09/17 01:00:17;;;;;;;11.80;2.60;;;12.30;99.90;;;;;;5026672;28;20208;-65
2022/09/17 01:02:44;;;;;;;13.60;2.15;;;12.30;99.90;;;;;;5023350;28;20277;-66
2022/09/17 01:05:14;;;;;;;14.85;2.33;;;12.30;99.90;;;;;;5000568;28;20596;-65
2022/09/17 01:08:01;;;;;;;8.13;2.63;;;12.40;99.90;;;;;;5011078;28;20240;-65
2022/09/17 01:10:41;;;;;;;14.13;2.67;;;12.50;99.90;;;;;;5004693;28;20212;-65
2022/09/17 01:13:19;;;;;;;12.95;2.53;;;10.90;99.90;;;;;;5013880;28;20209;-63
2022/09/17 01:15:52;;;;;;;10.25;2.58;;;12.50;99.90;;;;;;5025861;28;20196;-63
2022/09/17 01:18:32;;;;;;;17.45;2.92;;;12.50;99.90;;;;;;5027698;28;20202;-62
2022/09/17 01:21:32;;;;;;;9.05;2.30;;;12.50;99.90;;;;;;5001765;28;20671;-62
2022/09/17 01:24:31;;;;;;;6.38;1.80;;;12.50;99.90;;;;;;5014828;28;20203;-62
2022/09/17 01:27:33;;;;;;;8.13;2.00;;;12.60;99.90;;;;;;5000600;28;20767;-62
2022/09/17 01:30:16;;;;;;;10.82;2.20;;;12.50;99.90;;;;;;5018320;28;20198;-62
2022/09/17 01:32:50;;;;;;;10.90;2.22;;;12.50;99.90;;;;;;5026347;28;20189;-65
2022/09/17 01:35:21;;;;;;;8.88;1.50;;;12.50;99.90;;;;;;5020414;28;20212;-63
2022/09/17 01:37:56;;;;;;;7.80;1.80;;;13.10;99.90;;;;;;4999712;28;20781;-62
2022/09/17 01:40:27;;;;;;;10.23;2.22;;;12.30;99.90;;;;;;5020157;28;20217;-63
2022/09/17 01:43:02;;;;;;;4.07;1.27;;;12.30;99.90;;;;;;4999918;28;20255;-63
2022/09/17 01:45:35;;;;;;;10.48;1.27;;;12.30;99.90;;;;;;5013874;28;20204;-62
2022/09/17 01:48:10;;;;;;;5.88;1.48;;;12.20;99.90;;;;;;5029816;28;20241;-62
2022/09/17 01:50:40;;;;;;;3.35;1.67;;;12.20;99.90;;;;;;5008668;28;20958;-63
2022/09/17 01:53:10;;;;;;;11.02;1.92;;;12.20;99.90;;;;;;4998633;28;20205;-63
2022/09/17 01:55:39;;;;;;;9.57;1.33;;;12.20;99.90;;;;;;4995445;28;21082;-63
2022/09/17 01:58:11;;;;;;;10.52;1.90;;;12.10;99.90;;;;;;5011391;28;20222;-62
2022/09/17 02:00:41;;;;;;;10.52;1.80;;;12.20;99.90;;;;;;5009657;28;20206;-62
2022/09/17 02:03:14;;;;;;;6.90;1.38;;;12.30;99.90;;;;;;5028128;28;20283;-62
2022/09/17 02:05:45;;;;;;;8.00;1.58;;;12.30;99.90;;;;;;5014584;28;20233;-63
2022/09/17 02:08:18;;;;;;;11.57;1.83;;;12.30;99.90;;;;;;4997228;28;20244;-62
2022/09/17 02:10:49;;;;;;;10.23;1.67;;;12.30;99.90;;;;;;4990626;28;20259;-63
2022/09/17 02:13:20;;;;;;;11.90;1.27;;;12.40;99.90;;;;;;5008680;28;20212;-62
2022/09/17 02:15:51;;;;;;;6.95;1.52;;;12.30;99.90;;;;;;5009813;28;20238;-63
2022/09/17 02:18:27;;;;;;;11.05;1.45;;;12.10;99.90;;;;;;5020169;28;20202;-63
2022/09/17 02:21:03;;;;;;;5.53;1.40;;;12.20;99.90;;;;;;5023815;28;20208;-62
2022/09/17 02:23:35;;;;;;;8.40;1.10;;;12.20;99.90;;;;;;4996122;28;20741;-63
2022/09/17 02:26:08;;;;;;;6.27;1.53;;;12.20;99.90;;;;;;5008821;28;20201;-62
2022/09/17 02:28:42;;;;;;;8.50;1.67;;;12.40;99.90;;;;;;4993789;28;20229;-63
2022/09/17 02:31:10;;;;;;;6.63;1.75;;;12.30;99.90;;;;;;5009360;28;20200;-63
2022/09/17 02:33:41;;;;;;;8.20;1.38;;;12.30;99.90;;;;;;5019285;28;20292;-63
2022/09/17 02:36:09;;;;;;;9.13;1.90;;;12.20;99.90;;;;;;5015744;28;20209;-62
2022/09/17 02:38:38;;;;;;;7.15;2.22;;;12.20;99.90;;;;;;4992697;28;20209;-63
2022/09/17 02:41:16;;;;;;;14.38;1.90;;;12.30;99.90;;;;;;5009452;28;20255;-63
2022/09/17 02:43:55;;;;;;;10.65;2.28;;;12.40;99.90;;;;;;5006460;28;20205;-63
2022/09/17 02:46:41;;;;;;;12.65;2.03;;;12.40;99.90;;;;;;4996931;28;20209;-64
2022/09/17 02:49:33;;;;;;;11.85;2.00;;;12.40;99.90;;;;;;5017875;28;20229;-63
2022/09/17 02:52:12;;;;;;;10.50;1.98;;;12.40;99.90;;;;;;4992884;28;21274;-63
2022/09/17 02:54:46;;;;;;;6.40;1.73;;;13.40;99.90;;;;;;5014760;28;20217;-63
2022/09/17 02:57:20;;;;;;;12.85;1.88;;;12.50;99.90;;;;;;5014151;28;20323;-63
2022/09/17 02:59:54;;;;;;;6.07;1.38;;;12.00;99.90;;;;;;5003756;28;20215;-64
2022/09/17 03:02:25;;;;;;;5.15;1.08;;;12.50;99.90;;;;;;5012824;28;20202;-63
2022/09/17 03:04:54;;;;;;;8.98;1.95;;;12.40;99.90;;;;;;5011190;28;20711;-64
2022/09/17 03:07:23;;;;;;;12.88;1.65;;;12.40;99.90;;;;;;5016733;28;20225;-63
2022/09/17 03:09:50;;;;;;;15.32;2.28;;;12.40;99.90;;;;;;4989943;28;20209;-63
2022/09/17 03:12:17;;;;;;;9.23;1.55;;;12.50;99.90;;;;;;5020699;28;20208;-63
2022/09/17 03:14:43;;;;;;;11.00;2.05;;;12.40;99.90;;;;;;5009364;28;20198;-63
2022/09/17 03:17:13;;;;;;;9.77;1.80;;;12.40;99.90;;;;;;5011828;28;20217;-63
2022/09/17 03:19:40;;;;;;;5.90;1.70;;;12.30;99.90;;;;;;5020747;28;20314;-65
2022/09/17 03:22:08;;;;;;;10.02;2.30;;;12.30;99.90;;;;;;5013176;28;20216;-63
2022/09/17 03:24:35;;;;;;;11.77;1.50;;;12.30;99.90;;;;;;4998657;28;20582;-64
2022/09/17 03:27:02;;;;;;;8.45;2.47;;;12.30;99.90;;;;;;5010748;28;20900;-63
2022/09/17 03:29:29;;;;;;;7.95;2.25;;;12.40;99.90;;;;;;5014692;28;20583;-63
2022/09/17 03:31:55;;;;;;;9.18;1.80;;;12.30;99.90;;;;;;5006273;28;20210;-63
2022/09/17 03:34:22;;;;;;;8.73;2.35;;;12.30;99.90;;;;;;5030333;28;20205;-63
2022/09/17 03:36:49;;;;;;;13.90;2.15;;;12.30;99.90;;;;;;5011625;28;20210;-64
2022/09/17 03:39:17;;;;;;;7.93;1.70;;;12.20;99.90;;;;;;4994907;28;20206;-64
2022/09/17 03:41:44;;;;;;;5.63;1.92;;;12.40;99.90;;;;;;5004934;28;20212;-64
2022/09/17 03:44:11;;;;;;;6.93;1.83;;;12.20;99.90;;;;;;5009775;28;20212;-63
2022/09/17 03:46:38;;;;;;;14.50;2.83;;;12.30;99.90;;;;;;5025881;28;20202;-63
2022/09/17 03:49:05;;;;;;;6.68;1.88;;;12.10;99.90;;;;;;5009593;28;20233;-63
2022/09/17 03:51:31;;;;;;;5.18;1.40;;;12.00;99.90;;;;;;5024791;28;20212;-63
2022/09/17 03:53:58;;;;;;;7.57;1.40;;;11.80;99.90;;;;;;4983604;28;20213;-63
2022/09/17 03:56:26;;;;;;;6.43;1.25;;;11.90;99.90;;;;;;5022356;28;20687;-63
2022/09/17 03:58:58;;;;;;;9.65;2.17;;;11.70;99.90;;;;;;5005757;28;20206;-63
2022/09/17 04:01:25;;;;;;;10.48;1.65;;;11.80;99.90;;;;;;5016156;28;20241;-62
2022/09/17 04:03:51;;;;;;;11.97;2.03;;;11.80;99.90;;;;;;5010647;28;20645;-63
2022/09/17 04:06:18;;;;;;;10.50;1.60;;;11.70;99.90;;;;;;5023145;28;20248;-63
2022/09/17 04:08:45;;;;;;;7.78;1.35;;;11.70;99.90;;;;;;5016961;28;20721;-63
2022/09/17 04:11:13;;;;;;;8.30;1.93;;;11.50;99.90;;;;;;4998034;28;20198;-63
2022/09/17 04:13:41;;;;;;;7.03;1.63;;;11.60;99.90;;;;;;5011414;28;20205;-63
2022/09/17 04:16:08;;;;;;;9.63;2.10;;;11.90;99.90;;;;;;5015628;28;20372;-63
2022/09/17 04:18:35;;;;;;;4.83;1.43;;;11.70;99.90;;;;;;5015247;28;20305;-63
2022/09/17 04:21:02;;;;;;;7.18;1.73;;;11.70;99.90;;;;;;5027350;28;20201;-63
2022/09/17 04:23:29;;;;;;;7.90;1.60;;;11.80;99.90;;;;;;5025937;28;20216;-63
2022/09/17 04:25:56;;;;;;;4.88;2.00;;;11.30;99.90;;;;;;4994165;28;20205;-63
2022/09/17 04:28:22;;;;;;;7.28;2.45;;;11.60;99.90;;;;;;5013901;28;20710;-63
2022/09/17 04:30:51;;;;;;;9.43;1.45;;;11.80;99.90;;;;;;5025934;28;20198;-64
2022/09/17 04:33:17;;;;;;;7.75;1.33;;;11.80;99.90;;;;;;5004831;28;20209;-64
2022/09/17 04:35:45;;;;;;;4.50;1.55;;;11.70;99.90;;;;;;5019848;28;20209;-63
2022/09/17 04:38:17;;;;;;;5.22;1.13;;;11.80;99.90;;;;;;5021539;28;20202;-63
2022/09/17 04:40:45;;;;;;;6.35;2.05;;;11.90;99.90;;;;;;5005082;28;20211;-63
2022/09/17 04:43:12;;;;;;;10.00;1.80;;;11.80;99.90;;;;;;4987665;28;20675;-63
2022/09/17 04:45:39;;;;;;;7.57;1.50;;;11.70;99.90;;;;;;5020807;28;20209;-63
2022/09/17 04:48:08;;;;;;;4.65;1.65;;;11.70;99.90;;;;;;5005529;28;20233;-63
2022/09/17 04:50:34;;;;;;;9.27;2.03;;;12.00;99.90;;;;;;5020963;28;21187;-63
2022/09/17 04:53:01;;;;;;;8.20;1.85;;;11.60;99.90;;;;;;5011026;28;20225;-62
2022/09/17 04:55:30;;;;;;;8.68;1.77;;;;;;;;;;4997879;28;20221;-63
2022/09/17 04:57:57;;;;;;;9.70;1.35;;;11.60;99.90;;;;;;4999776;28;20229;-63
2022/09/17 05:00:24;;;;;;;8.02;2.17;;;11.60;99.90;;;;;;5005524;28;20206;-63
2022/09/17 05:02:53;;;;;;;7.77;1.63;;;11.60;99.90;;;;;;5024244;28;20194;-63
2022/09/17 05:05:22;;;;;;;2.60;1.35;;;11.40;99.90;;;;;;4995322;28;20217;-63
2022/09/17 05:07:49;;;;;;;7.38;1.65;;;11.40;99.90;;;;;;5012672;28;20233;-63
2022/09/17 05:10:18;;;;;;;10.90;1.47;;;11.20;99.90;;;;;;5011513;28;20698;-63
2022/09/17 05:12:48;;;;;;;6.97;1.67;;;11.40;99.90;;;;;;5020764;28;20216;-63
2022/09/17 05:15:15;;;;;;;9.70;1.98;;;11.50;99.90;;;;;;4986881;28;20785;-63
2022/09/17 05:17:42;;;;;;;6.32;2.05;;;11.40;99.90;;;;;;5020769;28;20209;-64
2022/09/17 05:20:10;;;;;;;7.32;1.30;;;11.40;99.90;;;;;;4997625;28;20979;-64
2022/09/17 05:22:42;;;;;;;9.07;1.80;;;11.40;99.90;;;;;;5025938;28;20308;-63
2022/09/17 05:25:09;;;;;;;7.20;1.77;;;11.40;99.90;;;;;;5017904;28;20707;-63
2022/09/17 05:27:36;;;;;;;7.35;1.60;;;11.40;99.90;;;;;;5027182;28;20208;-63
2022/09/17 05:30:04;;;;;;;4.60;1.20;;;11.40;99.90;;;;;;4985235;28;20202;-64
2022/09/17 05:32:30;;;;;;;13.88;2.03;;;11.20;99.90;;;;;;5014181;28;21131;-63
2022/09/17 05:34:57;;;;;;;9.65;2.28;;;11.40;99.90;;;;;;5000688;28;20197;-63
2022/09/17 05:37:24;;;;;;;4.72;1.33;;;11.40;99.90;;;;;;5021424;28;20198;-63
2022/09/17 05:39:52;;;;;;;7.68;1.90;;;11.40;99.90;;;;;;5010180;28;22215;-63
2022/09/17 05:42:19;;;;;;;8.05;1.45;;;11.40;99.90;;;;;;5009870;28;20987;-63
2022/09/17 05:44:46;;;;;;;7.20;1.77;;;11.40;99.90;;;;;;4999797;28;20667;-63
2022/09/17 05:47:13;;;;;;;11.77;1.65;;;11.40;99.90;;;;;;5012200;28;20201;-63
2022/09/17 05:49:39;;;;;;;7.30;1.42;;;11.20;99.90;;;;;;5016985;28;20231;-63
2022/09/17 05:52:06;;;;;;;16.13;1.95;;;11.40;99.90;;;;;;5008240;28;20206;-63
2022/09/17 05:54:33;;;;;;;12.02;1.88;;;11.40;99.90;;;;;;5026096;28;20193;-63
2022/09/17 05:57:01;;;;;;;8.60;1.60;;;11.40;99.90;;;;;;5019426;28;20225;-63
2022/09/17 05:59:28;;;;;;;10.18;1.98;;;11.40;99.90;;;;;;5000358;28;20283;-64
2022/09/17 06:01:55;;;;;;;4.97;1.33;;;11.10;99.90;;;;;;4995593;28;20197;-63
2022/09/17 06:04:21;;;;;;;6.00;1.92;;;11.20;99.90;;;;;;5008154;28;20222;-63
2022/09/17 06:06:48;;;;;;;4.40;1.40;;;11.30;99.90;;;;;;4977666;28;20225;-63
2022/09/17 06:09:15;;;;;;;19.48;2.35;;;11.30;99.90;;;;;;5004119;28;20233;-63
2022/09/17 06:11:42;;;;;;;6.75;1.92;;;11.30;99.90;;;;;;5007644;28;20244;-63
2022/09/17 06:14:10;;;;;;;8.97;1.77;;;11.40;99.90;;;;;;5008441;28;20225;-63
2022/09/17 06:16:37;;;;;;;11.00;1.80;;;11.00;99.90;;;;;;4979445;28;20209;-63
2022/09/17 06:19:04;;;;;;;7.30;1.83;;;11.30;99.90;;;;;;5022798;28;20689;-63
2022/09/17 06:21:31;;;;;;;9.15;1.65;;;11.30;99.90;;;;;;4995369;28;20684;-64
2022/09/17 06:23:57;;;;;;;8.05;1.75;;;11.30;99.90;;;;;;5007226;28;20201;-63
2022/09/17 06:26:24;;;;;;;8.70;2.10;;;11.40;99.90;;;;;;5011297;28;20230;-63
2022/09/17 06:28:51;;;;;;;4.50;2.20;;;11.40;99.90;;;;;;4995879;28;20225;-63
2022/09/17 06:31:19;;;;;;;8.60;1.77;;;11.40;99.90;;;;;;4993788;28;20205;-63
2022/09/17 06:33:47;;;;;;;7.18;1.50;;;11.30;99.90;;;;;;5006365;28;20994;-64
2022/09/17 06:36:13;;;;;;;14.13;1.95;;;11.30;99.90;;;;;;5005647;28;20206;-63
2022/09/17 06:38:40;;;;;;;10.95;1.90;;;11.70;99.90;;;;;;5002800;28;20237;-64
2022/09/17 06:41:07;;;;;;;7.82;2.05;;;11.30;99.90;;;;;;5010911;28;20204;-63
2022/09/17 06:43:34;;;;;;;12.95;1.40;;;;;;;;;;5018369;28;20201;-64
2022/09/17 06:46:02;;;;;;;12.48;2.47;;;11.20;99.90;;;;;;4992718;28;20687;-63
2022/09/17 06:48:33;;;;;;;10.88;1.75;;;11.30;99.90;;;;;;5015690;28;20228;-63
2022/09/17 06:51:03;;;;;;;5.72;1.67;;;11.20;99.90;;;;;;5015522;28;20206;-63
2022/09/17 06:53:30;;;;;;;4.22;1.38;;;11.20;99.90;;;;;;5012017;28;20201;-63
2022/09/17 06:55:58;;;;;;;14.15;2.03;;;11.40;99.90;;;;;;5003909;28;20212;-63
2022/09/17 06:58:25;;;;;;;8.57;1.45;;;11.30;99.90;;;;;;5018103;28;20201;-62
2022/09/17 07:00:52;;;;;;;7.55;1.40;;;11.50;99.90;;;;;;4981552;28;20389;-63
2022/09/17 07:03:19;;;;;;;6.07;1.73;;;11.30;99.90;;;;;;5020091;28;20209;-65
2022/09/17 07:05:47;;;;;;;9.77;2.13;;;11.30;99.90;;;;;;4990395;28;20233;-63
2022/09/17 07:08:14;;;;;;;8.73;1.50;;;11.30;99.90;;;;;;5001105;28;20234;-63
2022/09/17 07:10:41;;;;;;;13.88;1.67;;;11.30;99.30;;;;;;5002652;28;20790;-63
2022/09/17 07:13:07;;;;;;;13.55;1.83;;;11.60;99.90;;;;;;5011245;28;20202;-63
2022/09/17 07:15:34;;;;;;;4.75;1.23;;;11.50;98.30;;;;;;5008449;28;20213;-63
2022/09/17 07:18:07;;;;;;;6.35;2.05;;;11.50;98.80;;;;;;4997938;28;20217;-62
2022/09/17 07:20:34;;;;;;;4.57;1.33;;;11.60;97.70;;;;;;5013406;28;20205;-62
2022/09/17 07:23:02;;;;;;;12.70;1.67;;;11.80;95.90;;;;;;5010654;28;20209;-63
2022/09/17 07:25:29;;;;;;;5.38;1.65;;;11.60;96.40;;;;;;5007027;28;20198;-63
2022/09/17 07:27:56;;;;;;;11.38;2.03;;;11.70;93.90;;;;;;5006547;28;20690;-63
2022/09/17 07:30:23;;;;;;;3.28;1.20;;;11.70;95.70;;;;;;4993101;28;20642;-63
2022/09/17 07:32:49;;;;;;;6.65;1.75;;;11.80;93.90;;;;;;4990709;28;20759;-63
2022/09/17 07:35:17;;;;;;;8.52;1.90;;;;;;;;;;5003890;28;20201;-65
2022/09/17 07:37:44;;;;;;;9.65;1.60;;;12.00;94.70;;;;;;5006844;28;21065;-64
2022/09/17 07:40:12;;;;;;;6.72;2.00;;;12.20;89.70;;;;;;4999669;28;20212;-63
2022/09/17 07:42:39;;;;;;;14.68;2.03;;;12.20;78.30;;;;;;4985310;28;20205;-63
2022/09/17 07:45:08;;;;;;;18.98;2.08;;;12.20;77.70;;;;;;5009742;28;20218;-64
2022/09/17 07:47:38;;;;;;;7.88;1.23;;;12.40;68.70;;;;;;4973835;28;20229;-62
2022/09/17 07:50:06;;;;;;;12.23;2.08;;;12.60;78.80;;;;;;4996309;28;20240;-62
2022/09/17 07:52:33;;;;;;;14.77;2.03;;;12.90;71.40;;;;;;4991714;28;20726;-62
2022/09/17 07:55:00;;;;;;;10.75;1.42;;;12.80;68.40;;;;;;4974571;28;20213;-63
2022/09/17 07:57:28;;;;;;;12.82;2.05;;;12.60;60.80;;;;;;5021324;28;20202;-63
2022/09/17 07:59:55;;;;;;;3.10;1.10;;;12.40;75.80;;;;;;5003262;28;20216;-62
2022/09/17 08:02:22;;;;;;;3.88;1.13;;;12.40;77.10;;;;;;5010724;28;20208;-63
2022/09/17 08:04:49;;;;;;;5.13;1.17;;;12.30;68.10;;;;;;4974033;28;20244;-62
2022/09/17 08:07:16;;;;;;;4.22;1.35;;;12.40;66.70;;;;;;5007804;28;20209;-63
2022/09/17 08:09:43;;;;;;;3.33;1.25;;;12.20;74.70;;;;;;4995714;28;20275;-63
2022/09/17 08:12:09;;;;;;;4.03;1.25;;;12.20;85.70;;;;;;4991158;28;20197;-63
2022/09/17 08:14:38;;;;;;;3.53;1.08;;;12.10;81.00;;;;;;5015793;28;20205;-63
2022/09/17 08:17:07;;;;;;;6.40;1.15;;;12.10;85.30;;;;;;5014169;28;20581;-63
2022/09/17 08:19:34;;;;;;;4.80;1.10;;;12.10;85.10;;;;;;4975683;28;20607;-62
2022/09/17 08:22:00;;;;;;;6.85;2.75;;;12.10;78.40;;;;;;5016317;28;22637;-63
2022/09/17 08:24:27;;;;;;;5.82;1.63;;;12.10;90.00;;;;;;4996399;28;20544;-62
2022/09/17 08:26:54;;;;;;;4.90;1.52;;;12.10;74.90;;;;;;4981126;28;20234;-62
2022/09/17 08:29:21;;;;;;;5.40;0.98;;;11.90;70.00;;;;;;5004987;28;20229;-63
2022/09/17 08:31:49;;;;;;;4.95;1.27;;;12.10;66.30;;;;;;4994150;28;20202;-63
2022/09/17 08:34:16;;;;;;;8.18;1.27;;;12.10;72.70;;;;;;4990327;28;20249;-62
2022/09/17 08:36:43;;;;;;;6.32;1.20;;;12.00;77.00;;;;;;5014791;28;20205;-63
2022/09/17 08:39:11;;;;;;;6.32;1.10;;;14.50;80.50;;;;;;5001375;28;20240;-63
2022/09/17 08:41:50;;;;;;;6.07;1.30;;;12.00;70.60;;;;;;5005199;28;20201;-63
2022/09/17 08:44:24;;;;;;;2.78;0.90;;;11.90;72.10;;;;;;5000052;28;20230;-63
2022/09/17 08:46:59;;;;;;;10.43;1.38;;;14.00;80.80;;;;;;5002583;28;20224;-63
2022/09/17 08:49:32;;;;;;;7.85;1.55;;;11.90;68.40;;;;;;5008690;28;20330;-63
2022/09/17 08:52:25;;;;;;;6.35;1.27;;;11.80;90.20;;;;;;4984162;28;20914;-63
2022/09/17 08:55:05;;;;;;;6.18;1.48;;;12.10;95.30;;;;;;4987495;28;20224;-63
2022/09/17 08:57:39;;;;;;;6.30;1.55;;;11.70;98.80;;;;;;4998019;28;21458;-63
2022/09/17 09:00:11;;;;;;;3.25;0.98;;;11.60;99.90;;;;;;5001416;28;20229;-63
2022/09/17 09:02:57;;;;;;;6.82;1.35;;;11.60;99.90;;;;;;5014319;28;20243;-64
2022/09/17 09:05:32;;;;;;;7.65;1.65;;;11.30;99.90;;;;;;4977742;28;20706;-63
2022/09/17 09:08:05;;;;;;;7.47;1.40;;;11.40;99.90;;;;;;5017713;28;20204;-63
2022/09/17 09:10:43;;;;;;;8.33;1.60;;;11.30;99.90;;;;;;4994551;28;20236;-64
2022/09/17 09:13:13;;;;;;;4.35;1.15;;;11.20;99.90;;;;;;4998215;28;20212;-64
2022/09/17 09:15:43;;;;;;;9.23;2.40;;;11.00;99.90;;;;;;5006449;28;20201;-64
2022/09/17 09:18:21;;;;;;;4.47;1.60;;;9.20;99.90;;;;;;5009372;28;20290;-63
2022/09/17 09:20:54;;;;;;;6.17;1.50;;;11.20;99.90;;;;;;5004039;28;20212;-63
2022/09/17 09:23:29;;;;;;;4.60;1.07;;;11.40;99.90;;;;;;4986639;28;20863;-64
2022/09/17 09:26:07;;;;;;;6.30;1.17;;;11.40;99.90;;;;;;4995206;28;20706;-63
2022/09/17 09:28:53;;;;;;;7.17;0.97;;;11.40;99.90;;;;;;4999120;28;20361;-64
2022/09/17 09:31:33;;;;;;;4.23;1.10;;;11.30;99.90;;;;;;5001093;28;20694;-64
2022/09/17 09:34:03;;;;;;;2.43;0.87;;;12.50;99.90;;;;;;5018567;28;20653;-63
2022/09/17 09:36:32;;;;;;;6.20;1.50;;;11.30;99.90;;;;;;5014238;28;20507;-63
2022/09/17 09:39:02;;;;;;;5.23;1.20;;;11.30;99.90;;;;;;4988851;28;20828;-64
2022/09/17 09:41:39;;;;;;;9.40;1.40;;;11.30;99.90;;;;;;4990076;28;20907;-63
2022/09/17 09:44:10;;;;;;;4.13;1.37;;;11.20;99.90;;;;;;4992526;28;20886;-65
2022/09/17 09:46:54;;;;;;;5.30;1.20;;;13.40;99.90;;;;;;4999039;28;20224;-64
2022/09/17 09:49:33;;;;;;;6.57;1.00;;;11.50;99.90;;;;;;4997017;28;20225;-64
2022/09/17 09:52:16;;;;;;;2.20;0.87;;;12.00;99.90;;;;;;5000366;28;20596;-65
2022/09/17 09:54:53;;;;;;;5.30;1.20;;;11.30;99.90;;;;;;4994072;28;20689;-64
2022/09/17 09:57:31;;;;;;;3.40;0.80;;;12.00;99.90;;;;;;4981500;28;20450;-64
2022/09/17 10:00:24;;;;;;;4.27;0.90;;;11.30;99.90;;;;;;4969157;28;20702;-65
2022/09/17 10:02:56;;;;;;;5.32;0.85;;;11.60;99.90;;;;;;4992561;28;20222;-64
2022/09/17 10:05:24;;;;;;;4.47;0.68;;;11.60;99.90;;;;;;4996772;28;20245;-64
2022/09/17 10:07:51;;;;;;;3.23;0.90;;;10.10;99.90;;;;;;4997482;28;20193;-65
2022/09/17 10:10:18;;;;;;;5.97;1.38;;;11.90;99.90;;;;;;5004562;28;22350;-64
2022/09/17 10:12:46;;;;;;;6.32;0.88;;;11.80;99.90;;;;;;5001338;28;20201;-65
2022/09/17 10:15:26;;;;;;;4.45;1.25;;;12.50;99.90;;;;;;4994663;28;21588;-64
2022/09/17 10:18:17;;;;;;;3.33;1.10;;;11.50;99.90;;;;;;5018331;28;20205;-65
2022/09/17 10:20:53;;;;;;;3.33;0.70;;;11.50;99.90;;;;;;5002322;28;20225;-63
2022/09/17 10:23:20;;;;;;;4.93;0.90;;;11.60;99.90;;;;;;4995636;28;20213;-64
2022/09/17 10:25:49;;;;;;;1.95;0.50;;;11.50;99.90;;;;;;5020462;28;20251;-64
2022/09/17 10:28:30;;;;;;;2.90;1.02;;;11.30;99.90;;;;;;5007596;28;20197;-64
2022/09/17 10:30:58;;;;;;;5.27;1.30;;;11.50;99.90;;;;;;4994817;28;20224;-64
2022/09/17 10:33:28;;;;;;;6.50;1.38;;;11.40;99.90;;;;;;5012440;28;20200;-64
2022/09/17 10:36:00;;;;;;;10.50;1.70;;;11.50;99.90;;;;;;5003050;28;20208;-64
2022/09/17 10:38:28;;;;;;;6.67;2.10;;;11.70;99.90;;;;;;4993963;28;20344;-65
2022/09/17 10:41:10;;;;;;;9.15;1.67;;;11.60;99.90;;;;;;5023134;28;20202;-65
2022/09/17 10:43:37;;;;;;;5.83;1.87;;;11.60;99.90;;;;;;5013765;28;20219;-64
2022/09/17 10:46:04;;;;;;;3.80;1.10;;;11.60;99.90;;;;;;4991383;28;20938;-63
2022/09/17 10:48:37;;;;;;;5.97;1.13;;;11.70;99.90;;;;;;5008728;28;20670;-63
2022/09/17 10:51:07;;;;;;;9.87;1.33;;;11.90;99.90;;;;;;4997585;28;20256;-64
2022/09/17 10:53:52;;;;;;;4.70;1.27;;;11.70;99.90;;;;;;5014141;28;20282;-64
2022/09/17 10:56:26;;;;;;;6.83;1.30;;;11.80;99.90;;;;;;5005436;28;20206;-64
2022/09/17 10:58:57;;;;;;;4.65;1.00;;;11.80;99.90;;;;;;5006380;28;20222;-64
2022/09/17 11:01:31;;;;;;;4.67;1.17;;;;;;;;;;4985456;28;20249;-64
2022/09/17 11:04:31;;;;;;;4.27;1.40;;;11.40;99.90;;;;;;5007093;28;20224;-64
2022/09/17 11:07:32;;;;;;;4.68;0.90;;;11.50;99.90;;;;;;5003499;28;20205;-65
2022/09/17 11:10:08;;;;;;;10.67;1.37;;;13.20;99.90;;;;;;4982339;28;20357;-65
2022/09/17 11:12:45;;;;;;;7.40;1.23;;;11.50;99.90;;;;;;5011698;28;20260;-65
2022/09/17 11:15:29;;;;;;;3.77;1.37;;;11.30;99.90;;;;;;5002272;28;20728;-66
2022/09/17 11:18:17;;;;;;;4.43;1.30;;;15.80;99.90;;;;;;4978322;28;20229;-66
2022/09/17 11:21:08;;;;;;;10.00;1.60;;;11.70;99.90;;;;;;5011821;28;20222;-65
2022/09/17 11:23:56;;;;;;;3.97;1.15;;;11.70;99.90;;;;;;5002157;22;20237;-66
2022/09/17 11:26:32;;;;;;;5.10;1.63;;;11.80;99.90;;;;;;4982692;28;20232;-66
2022/09/17 11:29:11;;;;;;;3.83;1.08;;;11.90;99.90;;;;;;5010534;28;20221;-64
2022/09/17 11:31:50;;;;;;;3.65;1.70;;;11.80;99.90;;;;;;4997424;28;20239;-64
2022/09/17 11:34:25;;;;;;;4.60;1.38;;;14.10;99.90;;;;;;4993805;28;20217;-64
2022/09/17 11:37:00;;;;;;;6.97;1.38;;;12.00;99.90;;;;;;5003317;28;20209;-65
2022/09/17 11:39:30;;;;;;;9.45;1.50;;;;;;;;;;4974155;28;20205;-66
2022/09/17 11:42:00;;;;;;;3.08;1.27;;;12.10;99.90;;;;;;5013350;28;20222;-66
2022/09/17 11:44:31;;;;;;;7.32;1.10;;;11.90;99.90;;;;;;4995601;28;20229;-66
2022/09/17 11:47:05;;;;;;;4.23;1.07;;;11.90;99.90;;;;;;5010395;28;21209;-64
2022/09/17 11:49:39;;;;;;;5.17;1.00;;;11.90;99.90;;;;;;4998463;28;20204;-65
2022/09/17 11:52:10;;;;;;;3.33;0.90;;;12.20;99.90;;;;;;4992677;22;20377;-65
2022/09/17 11:54:47;;;;;;;7.72;1.42;;;12.20;99.90;;;;;;5023110;28;20228;-67
2022/09/17 11:57:16;;;;;;;8.98;1.77;;;13.10;99.90;;;;;;4993323;28;20220;-65
2022/09/17 11:59:54;;;;;;;3.47;1.45;;;13.20;99.90;;;;;;5042456;28;20701;-66
2022/09/17 12:02:26;;;;;;;7.55;1.23;;;12.70;99.90;;;;;;4967605;28;20262;-66
2022/09/17 12:04:58;;;;;;;8.57;1.33;;;12.80;99.90;;;;;;4960306;28;20203;-66
2022/09/17 12:07:33;;;;;;;9.07;1.63;;;13.00;99.90;;;;;;4973966;28;20214;-66
2022/09/17 12:10:15;;;;;;;3.53;1.20;;;12.70;99.90;;;;;;4972074;28;20234;-66
2022/09/17 12:12:48;;;;;;;7.00;1.50;;;13.60;99.90;;;;;;4950187;28;20701;-65
2022/09/17 12:15:21;;;;;;;9.90;2.28;;;13.70;99.90;;;;;;4976532;28;20214;-66
2022/09/17 12:17:57;;;;;;;11.13;1.50;;;13.40;99.90;;;;;;4967947;28;20236;-65
2022/09/17 12:20:29;;;;;;;6.13;1.45;;;13.10;99.90;;;;;;4964699;28;20954;-66
2022/09/17 12:22:59;;;;;;;3.65;0.93;;;12.80;99.90;;;;;;4975784;28;20234;-64
2022/09/17 12:25:37;;;;;;;6.95;2.10;;;13.10;99.90;;;;;;4970930;28;21044;-65
2022/09/17 12:28:09;;;;;;;8.52;1.77;;;13.10;99.90;;;;;;5004306;22;20235;-65
2022/09/17 12:30:40;;;;;;;10.98;1.88;;;13.00;99.90;;;;;;5039503;28;20717;-65
2022/09/17 12:33:26;;;;;;;10.82;1.48;;;13.00;99.90;;;;;;5022351;28;20224;-65
2022/09/17 12:36:10;;;;;;;11.60;1.27;;;12.90;99.90;;;;;;5021001;28;20213;-65
2022/09/17 12:39:14;;;;;;;5.97;1.25;;;12.90;99.90;;;;;;5034357;28;20231;-65
2022/09/17 12:41:55;;;;;;;5.25;1.33;;;12.80;99.90;;;;;;4983634;28;20252;-65
2022/09/17 12:44:46;;;;;;;5.68;1.10;;;12.90;99.90;;;;;;5031303;28;20193;-66
2022/09/17 12:47:44;;;;;;;3.85;1.13;;;13.00;99.90;;;;;;5011624;28;20723;-66
2022/09/17 12:50:21;;;;;;;7.72;1.65;;;13.10;99.90;;;;;;5009982;28;20369;-66
2022/09/17 12:53:07;;;;;;;7.90;1.40;;;13.10;99.90;;;;;;5030012;28;20670;-65
2022/09/17 12:55:44;;;;;;;10.25;1.95;;;13.10;99.90;;;;;;5033682;28;20862;-66
2022/09/17 12:58:24;;;;;;;4.50;1.38;;;12.90;99.50;;;;;;5003301;28;20233;-65
2022/09/17 13:00:59;;;;;;;2.58;1.00;;;12.80;99.30;;;;;;5038177;28;20225;-65
2022/09/17 13:03:40;;;;;;;3.13;1.27;;;13.90;95.90;;;;;;5018608;28;20305;-65
2022/09/17 13:06:26;;;;;;;1.58;0.93;;;12.00;96.20;;;;;;5014095;28;20233;-65
2022/09/17 13:09:34;;;;;;;6.88;1.35;;;12.00;99.90;;;;;;5028403;28;20716;-65